CheckWX is a tool to help pilots better visualize weather data.  It is not intended as a substitute for an official pre-flight weather briefing.

08:46:59 UTC

KMLC METAR
Mc Alester Regional Airport
Mc Alester, Oklahoma, USA
Current

54 mins ago

KMLC 280753Z AUTO 18010G18KT 10SM CLR 24/17 A2967 RMK AO2 SLP036 T02390172
Observed
Mar-28 @ 07:53 UTC
Wind
  • 180° at 10 KTS
  • Gusting to 18 KTS
Visibility
10 SM
Flight Rules
VFR
Cloud Levels
  • Clear skies
Temperature
24°C / 75°F
Dewpoint
17°C / 63°F
Humidity
65%
Altimeter
29.67" Hg
Pressure
1004.72 hPa
Previous

2 hours ago

KMLC 280653Z AUTO 19007G15KT 10SM CLR 24/18 A2965 RMK AO2 SLP030 T02390178
Observed
Mar-28 @ 06:53 UTC
Wind
  • 190° at 7 KTS
  • Gusting to 15 KTS
Visibility
10 SM
Flight Rules
VFR
Cloud Levels
  • Clear skies
Temperature
24°C / 75°F
Dewpoint
18°C / 64°F
Humidity
69%
Altimeter
29.65" Hg
Pressure
1004.02 hPa
Previous

3 hours ago

KMLC 280553Z AUTO 18008KT 10SM CLR 24/18 A2966 RMK AO2 SLP035 T02440183 10244 20239 402440217 58006
Observed
Mar-28 @ 05:53 UTC
Wind
  • 180° at 8 KTS
Visibility
10 SM
Flight Rules
VFR
Cloud Levels
  • Clear skies
Temperature
24°C / 75°F
Dewpoint
18°C / 64°F
Humidity
69%
Altimeter
29.66" Hg
Pressure
1004.42 hPa